Terminal Aerodrome Forecast
Issued by NWS

Home | Current Version | Previous Version | Text Only | Print | Product List | Glossary On
Versions: 1 2 3 4 5 6 7 8 9 10 11 12 13 14 15 16
000
FTPA31 PHFO 310536
TAFHLI
TAF
PHLI 310536Z 3106/0106 04014KT P6SM VCSH SCT015 BKN020
      TEMPO 3106/3110 3SM SHRA BR BKN012
     FM010000 05015G23KT P6SM SCT025 BKN040=

USA.gov is the U.S. government's official web portal to all federal, state and local government web resources and services.